sensor_id;sensor_type;location;lat;lon;timestamp;P1;durP1;ratioP1;P2;durP2;ratioP2
33902;SDS011;20194;50.950;5.346;2022-11-21T00:00:50;31.30;;;5.53;;
33902;SDS011;20194;50.950;5.346;2022-11-21T00:03:17;16.73;;;3.97;;
33902;SDS011;20194;50.950;5.346;2022-11-21T00:05:44;20.55;;;4.28;;
33902;SDS011;20194;50.950;5.346;2022-11-21T00:08:12;13.50;;;3.78;;
33902;SDS011;20194;50.950;5.346;2022-11-21T00:10:39;19.88;;;4.32;;
33902;SDS011;20194;50.950;5.346;2022-11-21T00:13:06;18.10;;;3.55;;
33902;SDS011;20194;50.950;5.346;2022-11-21T00:15:32;13.88;;;3.80;;
33902;SDS011;20194;50.950;5.346;2022-11-21T00:18:00;22.35;;;4.18;;
33902;SDS011;20194;50.950;5.346;2022-11-21T00:20:27;20.95;;;4.88;;
33902;SDS011;20194;50.950;5.346;2022-11-21T00:22:52;23.42;;;4.20;;
33902;SDS011;20194;50.950;5.346;2022-11-21T00:25:18;14.05;;;5.30;;
33902;SDS011;20194;50.950;5.346;2022-11-21T00:27:43;18.95;;;4.45;;
33902;SDS011;20194;50.950;5.346;2022-11-21T00:30:10;19.17;;;4.22;;
33902;SDS011;20194;50.950;5.346;2022-11-21T00:32:36;12.93;;;4.40;;
33902;SDS011;20194;50.950;5.346;2022-11-21T00:35:02;12.40;;;3.53;;
33902;SDS011;20194;50.950;5.346;2022-11-21T00:37:30;12.90;;;3.70;;
33902;SDS011;20194;50.950;5.346;2022-11-21T00:39:56;21.05;;;4.65;;
33902;SDS011;20194;50.950;5.346;2022-11-21T00:42:22;17.30;;;3.65;;
33902;SDS011;20194;50.950;5.346;2022-11-21T00:44:48;23.95;;;4.35;;
33902;SDS011;20194;50.950;5.346;2022-11-21T00:47:13;17.58;;;3.67;;
33902;SDS011;20194;50.950;5.346;2022-11-21T00:49:39;21.98;;;3.53;;
33902;SDS011;20194;50.950;5.346;2022-11-21T00:52:05;14.05;;;3.92;;
33902;SDS011;20194;50.950;5.346;2022-11-21T00:54:30;15.30;;;3.90;;
33902;SDS011;20194;50.950;5.346;2022-11-21T00:56:56;18.38;;;3.60;;
33902;SDS011;20194;50.950;5.346;2022-11-21T00:59:21;14.30;;;3.50;;
33902;SDS011;20194;50.950;5.346;2022-11-21T01:01:47;25.42;;;4.03;;
33902;SDS011;20194;50.950;5.346;2022-11-21T01:04:13;19.17;;;3.83;;
33902;SDS011;20194;50.950;5.346;2022-11-21T01:06:38;18.05;;;3.60;;
33902;SDS011;20194;50.950;5.346;2022-11-21T01:09:04;13.43;;;3.90;;
33902;SDS011;20194;50.950;5.346;2022-11-21T01:11:31;22.85;;;3.97;;
33902;SDS011;20194;50.950;5.346;2022-11-21T01:13:57;17.13;;;3.88;;
33902;SDS011;20194;50.950;5.346;2022-11-21T01:16:23;15.70;;;3.33;;
33902;SDS011;20194;50.950;5.346;2022-11-21T01:18:51;11.73;;;3.08;;
33902;SDS011;20194;50.950;5.346;2022-11-21T01:21:18;19.45;;;3.70;;
33902;SDS011;20194;50.950;5.346;2022-11-21T01:23:48;11.90;;;2.80;;
33902;SDS011;20194;50.950;5.346;2022-11-21T01:26:16;14.23;;;3.55;;
33902;SDS011;20194;50.950;5.346;2022-11-21T01:28:43;13.18;;;3.33;;
33902;SDS011;20194;50.950;5.346;2022-11-21T01:31:09;13.63;;;3.20;;
33902;SDS011;20194;50.950;5.346;2022-11-21T01:33:37;20.35;;;4.13;;
33902;SDS011;20194;50.950;5.346;2022-11-21T01:36:08;11.30;;;3.05;;
33902;SDS011;20194;50.950;5.346;2022-11-21T01:38:36;13.65;;;3.15;;
33902;SDS011;20194;50.950;5.346;2022-11-21T01:41:02;12.57;;;2.95;;
33902;SDS011;20194;50.950;5.346;2022-11-21T01:43:28;10.55;;;2.55;;
33902;SDS011;20194;50.950;5.346;2022-11-21T01:45:57;9.40;;;2.90;;
33902;SDS011;20194;50.950;5.346;2022-11-21T01:48:34;11.20;;;3.25;;
33902;SDS011;20194;50.950;5.346;2022-11-21T01:54:35;9.48;;;2.97;;
33902;SDS011;20194;50.950;5.346;2022-11-21T01:57:13;12.57;;;2.33;;
33902;SDS011;20194;50.950;5.346;2022-11-21T02:02:38;16.35;;;3.13;;
33902;SDS011;20194;50.950;5.346;2022-11-21T02:05:08;7.05;;;2.60;;
33902;SDS011;20194;50.950;5.346;2022-11-21T02:07:37;7.65;;;2.53;;
33902;SDS011;20194;50.950;5.346;2022-11-21T02:10:05;14.48;;;3.05;;
33902;SDS011;20194;50.950;5.346;2022-11-21T02:12:34;9.77;;;2.92;;
33902;SDS011;20194;50.950;5.346;2022-11-21T02:15:06;12.25;;;3.17;;
33902;SDS011;20194;50.950;5.346;2022-11-21T02:17:32;10.52;;;3.10;;
33902;SDS011;20194;50.950;5.346;2022-11-21T02:19:59;7.43;;;2.85;;
33902;SDS011;20194;50.950;5.346;2022-11-21T02:27:29;10.35;;;2.58;;
33902;SDS011;20194;50.950;5.346;2022-11-21T02:29:56;15.90;;;3.47;;
33902;SDS011;20194;50.950;5.346;2022-11-21T02:32:23;15.73;;;4.00;;
33902;SDS011;20194;50.950;5.346;2022-11-21T02:34:59;13.15;;;2.88;;
33902;SDS011;20194;50.950;5.346;2022-11-21T02:37:25;18.92;;;4.68;;
33902;SDS011;20194;50.950;5.346;2022-11-21T02:39:51;15.50;;;3.90;;
33902;SDS011;20194;50.950;5.346;2022-11-21T02:42:32;11.95;;;3.33;;
33902;SDS011;20194;50.950;5.346;2022-11-21T02:45:20;12.98;;;3.95;;
33902;SDS011;20194;50.950;5.346;2022-11-21T02:47:48;16.70;;;3.90;;
33902;SDS011;20194;50.950;5.346;2022-11-21T02:50:22;16.13;;;4.22;;
33902;SDS011;20194;50.950;5.346;2022-11-21T02:52:51;13.05;;;3.45;;
33902;SDS011;20194;50.950;5.346;2022-11-21T02:55:17;15.35;;;3.88;;
33902;SDS011;20194;50.950;5.346;2022-11-21T02:57:42;18.15;;;4.18;;
33902;SDS011;20194;50.950;5.346;2022-11-21T03:00:08;11.68;;;3.08;;
33902;SDS011;20194;50.950;5.346;2022-11-21T03:02:35;12.80;;;3.45;;
33902;SDS011;20194;50.950;5.346;2022-11-21T03:05:01;15.48;;;4.45;;
33902;SDS011;20194;50.950;5.346;2022-11-21T03:07:29;13.68;;;3.67;;
33902;SDS011;20194;50.950;5.346;2022-11-21T03:09:55;10.75;;;3.60;;
33902;SDS011;20194;50.950;5.346;2022-11-21T03:12:21;14.57;;;3.88;;
33902;SDS011;20194;50.950;5.346;2022-11-21T03:14:47;15.73;;;3.63;;
33902;SDS011;20194;50.950;5.346;2022-11-21T03:17:13;11.05;;;3.80;;
33902;SDS011;20194;50.950;5.346;2022-11-21T03:19:39;19.05;;;4.22;;
33902;SDS011;20194;50.950;5.346;2022-11-21T03:22:05;20.40;;;4.32;;
33902;SDS011;20194;50.950;5.346;2022-11-21T03:24:31;15.25;;;3.85;;
33902;SDS011;20194;50.950;5.346;2022-11-21T03:26:56;14.65;;;3.35;;
33902;SDS011;20194;50.950;5.346;2022-11-21T03:29:22;16.20;;;3.55;;
33902;SDS011;20194;50.950;5.346;2022-11-21T03:31:48;19.75;;;3.72;;
33902;SDS011;20194;50.950;5.346;2022-11-21T03:34:13;14.27;;;3.40;;
33902;SDS011;20194;50.950;5.346;2022-11-21T03:36:39;14.27;;;3.78;;
33902;SDS011;20194;50.950;5.346;2022-11-21T03:39:05;13.20;;;3.60;;
33902;SDS011;20194;50.950;5.346;2022-11-21T03:41:30;12.88;;;4.05;;
33902;SDS011;20194;50.950;5.346;2022-11-21T03:44:06;12.45;;;3.42;;
33902;SDS011;20194;50.950;5.346;2022-11-21T03:46:34;17.02;;;3.88;;
33902;SDS011;20194;50.950;5.346;2022-11-21T03:49:01;16.17;;;3.60;;
33902;SDS011;20194;50.950;5.346;2022-11-21T03:51:28;12.00;;;3.25;;
33902;SDS011;20194;50.950;5.346;2022-11-21T03:53:53;19.85;;;3.97;;
33902;SDS011;20194;50.950;5.346;2022-11-21T03:56:19;8.40;;;3.60;;
33902;SDS011;20194;50.950;5.346;2022-11-21T03:58:46;17.83;;;3.28;;
33902;SDS011;20194;50.950;5.346;2022-11-21T04:01:12;7.78;;;3.47;;
33902;SDS011;20194;50.950;5.346;2022-11-21T04:03:39;10.05;;;2.80;;
33902;SDS011;20194;50.950;5.346;2022-11-21T04:06:05;16.75;;;3.17;;
33902;SDS011;20194;50.950;5.346;2022-11-21T04:08:31;11.32;;;3.33;;
33902;SDS011;20194;50.950;5.346;2022-11-21T04:10:56;9.90;;;2.85;;
33902;SDS011;20194;50.950;5.346;2022-11-21T04:13:22;14.40;;;3.15;;
33902;SDS011;20194;50.950;5.346;2022-11-21T04:15:48;11.60;;;2.92;;
33902;SDS011;20194;50.950;5.346;2022-11-21T04:18:14;12.93;;;3.50;;
33902;SDS011;20194;50.950;5.346;2022-11-21T04:20:40;9.30;;;3.00;;
33902;SDS011;20194;50.950;5.346;2022-11-21T04:23:06;13.23;;;2.90;;
33902;SDS011;20194;50.950;5.346;2022-11-21T04:25:31;9.07;;;3.53;;
33902;SDS011;20194;50.950;5.346;2022-11-21T04:27:57;8.57;;;2.60;;
33902;SDS011;20194;50.950;5.346;2022-11-21T04:30:25;14.02;;;3.97;;
33902;SDS011;20194;50.950;5.346;2022-11-21T04:32:54;12.77;;;3.00;;
33902;SDS011;20194;50.950;5.346;2022-11-21T04:35:21;15.38;;;4.30;;
33902;SDS011;20194;50.950;5.346;2022-11-21T04:37:48;16.92;;;3.67;;
33902;SDS011;20194;50.950;5.346;2022-11-21T04:40:15;11.93;;;3.65;;
33902;SDS011;20194;50.950;5.346;2022-11-21T04:42:44;7.95;;;3.10;;
33902;SDS011;20194;50.950;5.346;2022-11-21T04:45:12;8.35;;;3.25;;
33902;SDS011;20194;50.950;5.346;2022-11-21T04:47:39;11.90;;;2.78;;
33902;SDS011;20194;50.950;5.346;2022-11-21T04:50:06;11.68;;;2.90;;
33902;SDS011;20194;50.950;5.346;2022-11-21T04:52:34;15.43;;;2.92;;
33902;SDS011;20194;50.950;5.346;2022-11-21T04:54:59;15.43;;;3.25;;
33902;SDS011;20194;50.950;5.346;2022-11-21T04:57:28;7.32;;;3.70;;
33902;SDS011;20194;50.950;5.346;2022-11-21T04:59:54;19.45;;;4.35;;
33902;SDS011;20194;50.950;5.346;2022-11-21T05:02:20;13.98;;;3.83;;
33902;SDS011;20194;50.950;5.346;2022-11-21T05:04:47;12.95;;;3.50;;
33902;SDS011;20194;50.950;5.346;2022-11-21T05:07:13;16.63;;;3.50;;
33902;SDS011;20194;50.950;5.346;2022-11-21T05:09:39;10.68;;;3.38;;
33902;SDS011;20194;50.950;5.346;2022-11-21T05:12:05;10.20;;;2.70;;
33902;SDS011;20194;50.950;5.346;2022-11-21T05:14:51;10.27;;;3.33;;
33902;SDS011;20194;50.950;5.346;2022-11-21T05:17:17;10.13;;;3.20;;
33902;SDS011;20194;50.950;5.346;2022-11-21T05:19:43;8.05;;;3.85;;
33902;SDS011;20194;50.950;5.346;2022-11-21T05:22:09;18.20;;;3.35;;
33902;SDS011;20194;50.950;5.346;2022-11-21T05:24:34;13.07;;;3.45;;
33902;SDS011;20194;50.950;5.346;2022-11-21T05:27:00;12.48;;;3.45;;
33902;SDS011;20194;50.950;5.346;2022-11-21T05:29:25;8.43;;;3.08;;
33902;SDS011;20194;50.950;5.346;2022-11-21T05:31:51;14.38;;;3.40;;
33902;SDS011;20194;50.950;5.346;2022-11-21T05:34:17;16.17;;;3.97;;
33902;SDS011;20194;50.950;5.346;2022-11-21T05:36:42;14.77;;;3.75;;
33902;SDS011;20194;50.950;5.346;2022-11-21T05:39:08;9.77;;;3.30;;
33902;SDS011;20194;50.950;5.346;2022-11-21T05:41:34;14.85;;;4.22;;
33902;SDS011;20194;50.950;5.346;2022-11-21T05:43:59;8.05;;;3.08;;
33902;SDS011;20194;50.950;5.346;2022-11-21T05:46:25;16.73;;;3.88;;
33902;SDS011;20194;50.950;5.346;2022-11-21T05:48:51;14.77;;;4.00;;
33902;SDS011;20194;50.950;5.346;2022-11-21T05:51:19;12.13;;;3.80;;
33902;SDS011;20194;50.950;5.346;2022-11-21T05:53:45;11.55;;;3.40;;
33902;SDS011;20194;50.950;5.346;2022-11-21T05:56:13;17.45;;;4.60;;
33902;SDS011;20194;50.950;5.346;2022-11-21T05:58:41;19.73;;;4.22;;
33902;SDS011;20194;50.950;5.346;2022-11-21T06:01:07;11.15;;;3.78;;
33902;SDS011;20194;50.950;5.346;2022-11-21T06:03:35;16.65;;;4.30;;
33902;SDS011;20194;50.950;5.346;2022-11-21T06:06:06;14.02;;;4.03;;
33902;SDS011;20194;50.950;5.346;2022-11-21T06:08:40;13.45;;;4.13;;
33902;SDS011;20194;50.950;5.346;2022-11-21T06:11:08;11.73;;;3.38;;
33902;SDS011;20194;50.950;5.346;2022-11-21T06:13:36;11.07;;;3.50;;
33902;SDS011;20194;50.950;5.346;2022-11-21T06:16:04;15.50;;;5.28;;
33902;SDS011;20194;50.950;5.346;2022-11-21T06:18:37;12.95;;;4.35;;
33902;SDS011;20194;50.950;5.346;2022-11-21T06:21:14;14.80;;;4.45;;
33902;SDS011;20194;50.950;5.346;2022-11-21T06:23:41;7.00;;;3.10;;
33902;SDS011;20194;50.950;5.346;2022-11-21T06:26:10;16.02;;;3.67;;
33902;SDS011;20194;50.950;5.346;2022-11-21T06:28:37;13.00;;;4.07;;
33902;SDS011;20194;50.950;5.346;2022-11-21T06:31:09;15.63;;;4.68;;
33902;SDS011;20194;50.950;5.346;2022-11-21T06:33:43;8.85;;;3.20;;
33902;SDS011;20194;50.950;5.346;2022-11-21T06:36:10;12.55;;;3.22;;
33902;SDS011;20194;50.950;5.346;2022-11-21T06:38:38;11.85;;;3.50;;
33902;SDS011;20194;50.950;5.346;2022-11-21T06:41:04;15.75;;;3.70;;
33902;SDS011;20194;50.950;5.346;2022-11-21T06:43:31;15.88;;;3.88;;
33902;SDS011;20194;50.950;5.346;2022-11-21T06:45:57;17.42;;;3.67;;
33902;SDS011;20194;50.950;5.346;2022-11-21T06:48:23;11.95;;;4.57;;
33902;SDS011;20194;50.950;5.346;2022-11-21T06:50:49;24.20;;;4.82;;
33902;SDS011;20194;50.950;5.346;2022-11-21T06:53:14;8.50;;;3.10;;
33902;SDS011;20194;50.950;5.346;2022-11-21T06:55:40;14.45;;;3.55;;
33902;SDS011;20194;50.950;5.346;2022-11-21T06:58:06;11.95;;;3.28;;
33902;SDS011;20194;50.950;5.346;2022-11-21T07:00:31;14.32;;;3.55;;
33902;SDS011;20194;50.950;5.346;2022-11-21T07:03:00;12.65;;;3.03;;
33902;SDS011;20194;50.950;5.346;2022-11-21T07:05:26;18.88;;;3.58;;
33902;SDS011;20194;50.950;5.346;2022-11-21T07:07:59;9.75;;;3.38;;
33902;SDS011;20194;50.950;5.346;2022-11-21T07:12:55;9.23;;;3.28;;
33902;SDS011;20194;50.950;5.346;2022-11-21T07:15:43;14.90;;;3.15;;
33902;SDS011;20194;50.950;5.346;2022-11-21T07:18:10;12.52;;;3.28;;
33902;SDS011;20194;50.950;5.346;2022-11-21T07:20:36;10.93;;;3.10;;
33902;SDS011;20194;50.950;5.346;2022-11-21T07:23:02;18.98;;;4.57;;
33902;SDS011;20194;50.950;5.346;2022-11-21T07:25:28;19.45;;;4.22;;
33902;SDS011;20194;50.950;5.346;2022-11-21T07:27:57;18.50;;;4.30;;
33902;SDS011;20194;50.950;5.346;2022-11-21T07:30:26;9.18;;;4.07;;
33902;SDS011;20194;50.950;5.346;2022-11-21T07:32:55;15.18;;;3.72;;
33902;SDS011;20194;50.950;5.346;2022-11-21T07:35:25;19.70;;;4.05;;
33902;SDS011;20194;50.950;5.346;2022-11-21T07:37:51;18.85;;;3.63;;
33902;SDS011;20194;50.950;5.346;2022-11-21T07:40:17;14.60;;;4.10;;
33902;SDS011;20194;50.950;5.346;2022-11-21T07:42:44;20.60;;;4.43;;
33902;SDS011;20194;50.950;5.346;2022-11-21T07:45:10;19.40;;;3.92;;
33902;SDS011;20194;50.950;5.346;2022-11-21T07:47:36;10.93;;;3.05;;
33902;SDS011;20194;50.950;5.346;2022-11-21T07:50:03;19.65;;;4.60;;
33902;SDS011;20194;50.950;5.346;2022-11-21T07:52:29;18.88;;;4.80;;
33902;SDS011;20194;50.950;5.346;2022-11-21T07:54:55;21.15;;;4.53;;
33902;SDS011;20194;50.950;5.346;2022-11-21T07:57:21;16.65;;;4.20;;
33902;SDS011;20194;50.950;5.346;2022-11-21T07:59:47;19.13;;;4.45;;
33902;SDS011;20194;50.950;5.346;2022-11-21T08:02:17;13.10;;;3.90;;
33902;SDS011;20194;50.950;5.346;2022-11-21T08:04:45;17.10;;;4.03;;
33902;SDS011;20194;50.950;5.346;2022-11-21T08:07:12;22.40;;;4.32;;
33902;SDS011;20194;50.950;5.346;2022-11-21T08:09:38;15.23;;;3.85;;
33902;SDS011;20194;50.950;5.346;2022-11-21T08:12:04;13.98;;;3.55;;
33902;SDS011;20194;50.950;5.346;2022-11-21T08:14:30;20.17;;;3.97;;
33902;SDS011;20194;50.950;5.346;2022-11-21T08:16:56;11.70;;;3.20;;
33902;SDS011;20194;50.950;5.346;2022-11-21T08:19:22;16.50;;;4.25;;
33902;SDS011;20194;50.950;5.346;2022-11-21T08:21:47;15.70;;;3.65;;
33902;SDS011;20194;50.950;5.346;2022-11-21T08:24:13;14.98;;;3.50;;
33902;SDS011;20194;50.950;5.346;2022-11-21T08:26:41;11.43;;;3.55;;
33902;SDS011;20194;50.950;5.346;2022-11-21T08:29:08;12.52;;;3.78;;
33902;SDS011;20194;50.950;5.346;2022-11-21T08:31:35;11.43;;;3.05;;
33902;SDS011;20194;50.950;5.346;2022-11-21T08:34:01;14.35;;;3.58;;
33902;SDS011;20194;50.950;5.346;2022-11-21T08:36:27;13.35;;;3.28;;
33902;SDS011;20194;50.950;5.346;2022-11-21T08:38:54;14.13;;;3.42;;
33902;SDS011;20194;50.950;5.346;2022-11-21T08:41:19;16.45;;;3.20;;
33902;SDS011;20194;50.950;5.346;2022-11-21T08:44:04;16.92;;;3.53;;
33902;SDS011;20194;50.950;5.346;2022-11-21T08:46:31;15.40;;;3.30;;
33902;SDS011;20194;50.950;5.346;2022-11-21T08:49:01;14.18;;;2.80;;
33902;SDS011;20194;50.950;5.346;2022-11-21T08:51:27;10.05;;;3.50;;
33902;SDS011;20194;50.950;5.346;2022-11-21T08:53:53;13.18;;;2.95;;
33902;SDS011;20194;50.950;5.346;2022-11-21T08:56:18;13.07;;;2.78;;
33902;SDS011;20194;50.950;5.346;2022-11-21T08:58:44;13.98;;;3.40;;
33902;SDS011;20194;50.950;5.346;2022-11-21T09:01:10;10.90;;;2.58;;
33902;SDS011;20194;50.950;5.346;2022-11-21T09:03:35;9.93;;;3.00;;
33902;SDS011;20194;50.950;5.346;2022-11-21T09:06:01;11.45;;;2.70;;
33902;SDS011;20194;50.950;5.346;2022-11-21T09:08:27;13.77;;;3.03;;
33902;SDS011;20194;50.950;5.346;2022-11-21T09:10:54;11.73;;;3.10;;
33902;SDS011;20194;50.950;5.346;2022-11-21T09:13:20;14.68;;;3.15;;
33902;SDS011;20194;50.950;5.346;2022-11-21T09:15:46;9.68;;;3.03;;
33902;SDS011;20194;50.950;5.346;2022-11-21T09:18:30;8.60;;;2.80;;
33902;SDS011;20194;50.950;5.346;2022-11-21T09:21:02;8.00;;;3.03;;
33902;SDS011;20194;50.950;5.346;2022-11-21T09:23:28;8.05;;;2.95;;
33902;SDS011;20194;50.950;5.346;2022-11-21T09:25:54;16.10;;;2.78;;
33902;SDS011;20194;50.950;5.346;2022-11-21T09:28:20;8.25;;;2.58;;
33902;SDS011;20194;50.950;5.346;2022-11-21T09:30:45;5.50;;;2.47;;
33902;SDS011;20194;50.950;5.346;2022-11-21T09:33:12;12.02;;;2.33;;
33902;SDS011;20194;50.950;5.346;2022-11-21T09:35:40;6.90;;;2.15;;
33902;SDS011;20194;50.950;5.346;2022-11-21T09:38:06;10.32;;;2.42;;
33902;SDS011;20194;50.950;5.346;2022-11-21T09:40:33;6.93;;;2.28;;
33902;SDS011;20194;50.950;5.346;2022-11-21T09:45:45;5.28;;;2.13;;
33902;SDS011;20194;50.950;5.346;2022-11-21T09:48:15;12.90;;;3.10;;
33902;SDS011;20194;50.950;5.346;2022-11-21T09:50:55;12.15;;;2.88;;
33902;SDS011;20194;50.950;5.346;2022-11-21T09:53:27;9.43;;;2.25;;
33902;SDS011;20194;50.950;5.346;2022-11-21T09:55:58;9.05;;;2.97;;
33902;SDS011;20194;50.950;5.346;2022-11-21T10:01:03;5.70;;;2.35;;
33902;SDS011;20194;50.950;5.346;2022-11-21T10:03:31;6.85;;;2.15;;
33902;SDS011;20194;50.950;5.346;2022-11-21T10:11:32;9.52;;;1.95;;
33902;SDS011;20194;50.950;5.346;2022-11-21T10:25:37;9.20;;;2.10;;
33902;SDS011;20194;50.950;5.346;2022-11-21T10:30:41;8.88;;;3.10;;
33902;SDS011;20194;50.950;5.346;2022-11-21T10:33:12;14.25;;;3.80;;
33902;SDS011;20194;50.950;5.346;2022-11-21T10:36:01;10.20;;;3.20;;
33902;SDS011;20194;50.950;5.346;2022-11-21T10:38:51;9.00;;;2.65;;
33902;SDS011;20194;50.950;5.346;2022-11-21T10:47:22;8.48;;;3.00;;
33902;SDS011;20194;50.950;5.346;2022-11-21T10:49:56;12.02;;;3.90;;
33902;SDS011;20194;50.950;5.346;2022-11-21T10:52:57;11.55;;;4.07;;
33902;SDS011;20194;50.950;5.346;2022-11-21T10:58:32;10.23;;;3.60;;
33902;SDS011;20194;50.950;5.346;2022-11-21T11:03:46;11.30;;;3.75;;
33902;SDS011;20194;50.950;5.346;2022-11-21T11:06:28;13.70;;;4.07;;
33902;SDS011;20194;50.950;5.346;2022-11-21T11:08:54;15.82;;;5.50;;
33902;SDS011;20194;50.950;5.346;2022-11-21T11:11:21;14.68;;;3.90;;
33902;SDS011;20194;50.950;5.346;2022-11-21T11:13:56;17.27;;;4.93;;
33902;SDS011;20194;50.950;5.346;2022-11-21T11:16:28;11.05;;;4.13;;
33902;SDS011;20194;50.950;5.346;2022-11-21T11:18:59;10.93;;;4.05;;
33902;SDS011;20194;50.950;5.346;2022-11-21T11:29:19;17.75;;;4.82;;
33902;SDS011;20194;50.950;5.346;2022-11-21T11:34:35;10.32;;;3.50;;
33902;SDS011;20194;50.950;5.346;2022-11-21T11:39:36;13.65;;;4.07;;
33902;SDS011;20194;50.950;5.346;2022-11-21T11:55:46;8.13;;;2.85;;
33902;SDS011;20194;50.950;5.346;2022-11-21T11:58:35;6.90;;;2.53;;
33902;SDS011;20194;50.950;5.346;2022-11-21T12:01:07;9.80;;;2.40;;
33902;SDS011;20194;50.950;5.346;2022-11-21T12:06:15;10.18;;;2.70;;
33902;SDS011;20194;50.950;5.346;2022-11-21T12:08:57;11.32;;;2.78;;
33902;SDS011;20194;50.950;5.346;2022-11-21T12:23:26;12.13;;;4.05;;
33902;SDS011;20194;50.950;5.346;2022-11-21T12:26:17;4.68;;;2.35;;
33902;SDS011;20194;50.950;5.346;2022-11-21T12:34:42;10.65;;;2.65;;
33902;SDS011;20194;50.950;5.346;2022-11-21T12:45:50;9.88;;;2.28;;
33902;SDS011;20194;50.950;5.346;2022-11-21T12:48:33;12.10;;;2.65;;
33902;SDS011;20194;50.950;5.346;2022-11-21T12:57:18;14.05;;;2.70;;
33902;SDS011;20194;50.950;5.346;2022-11-21T13:05:09;12.27;;;2.78;;
33902;SDS011;20194;50.950;5.346;2022-11-21T13:07:40;13.23;;;2.40;;
33902;SDS011;20194;50.950;5.346;2022-11-21T13:10:11;6.80;;;2.10;;
33902;SDS011;20194;50.950;5.346;2022-11-21T13:15:23;6.97;;;2.33;;
33902;SDS011;20194;50.950;5.346;2022-11-21T13:17:54;9.38;;;2.90;;
33902;SDS011;20194;50.950;5.346;2022-11-21T13:20:29;6.68;;;2.72;;
33902;SDS011;20194;50.950;5.346;2022-11-21T13:23:02;12.15;;;2.72;;
33902;SDS011;20194;50.950;5.346;2022-11-21T13:30:47;11.98;;;2.42;;
33902;SDS011;20194;50.950;5.346;2022-11-21T13:35:59;14.18;;;2.75;;
33902;SDS011;20194;50.950;5.346;2022-11-21T13:38:31;9.75;;;2.50;;
33902;SDS011;20194;50.950;5.346;2022-11-21T13:50:07;10.43;;;2.50;;
33902;SDS011;20194;50.950;5.346;2022-11-21T13:52:27;16.80;;;2.53;;
33902;SDS011;20194;50.950;5.346;2022-11-21T13:55:17;18.65;;;2.85;;
33902;SDS011;20194;50.950;5.346;2022-11-21T14:03:55;15.13;;;2.60;;
33902;SDS011;20194;50.950;5.346;2022-11-21T14:06:46;14.63;;;3.08;;
33902;SDS011;20194;50.950;5.346;2022-11-21T14:14:24;18.00;;;2.97;;
33902;SDS011;20194;50.950;5.346;2022-11-21T14:20:03;15.85;;;3.08;;
33902;SDS011;20194;50.950;5.346;2022-11-21T14:22:56;10.53;;;2.80;;
33902;SDS011;20194;50.950;5.346;2022-11-21T14:28:09;14.85;;;3.03;;
33902;SDS011;20194;50.950;5.346;2022-11-21T14:30:40;25.20;;;3.30;;
33902;SDS011;20194;50.950;5.346;2022-11-21T14:33:41;20.52;;;2.92;;
33902;SDS011;20194;50.950;5.346;2022-11-21T14:36:04;17.30;;;2.88;;
33902;SDS011;20194;50.950;5.346;2022-11-21T14:38:42;17.40;;;3.00;;
33902;SDS011;20194;50.950;5.346;2022-11-21T14:41:30;14.13;;;2.97;;
33902;SDS011;20194;50.950;5.346;2022-11-21T14:46:22;15.18;;;3.15;;
33902;SDS011;20194;50.950;5.346;2022-11-21T14:48:55;17.55;;;3.20;;
33902;SDS011;20194;50.950;5.346;2022-11-21T14:51:33;13.82;;;2.75;;
33902;SDS011;20194;50.950;5.346;2022-11-21T14:54:00;20.23;;;3.08;;
33902;SDS011;20194;50.950;5.346;2022-11-21T14:56:31;13.77;;;2.63;;
33902;SDS011;20194;50.950;5.346;2022-11-21T14:59:00;15.07;;;3.08;;
33902;SDS011;20194;50.950;5.346;2022-11-21T15:01:30;17.40;;;3.00;;
33902;SDS011;20194;50.950;5.346;2022-11-21T15:03:58;16.95;;;3.30;;
33902;SDS011;20194;50.950;5.346;2022-11-21T15:06:28;23.10;;;3.25;;
33902;SDS011;20194;50.950;5.346;2022-11-21T15:09:00;10.80;;;2.33;;
33902;SDS011;20194;50.950;5.346;2022-11-21T15:14:27;16.00;;;3.15;;
33902;SDS011;20194;50.950;5.346;2022-11-21T15:17:07;8.75;;;2.15;;
33902;SDS011;20194;50.950;5.346;2022-11-21T15:19:37;5.13;;;1.73;;
33902;SDS011;20194;50.950;5.346;2022-11-21T15:22:05;14.35;;;2.28;;
33902;SDS011;20194;50.950;5.346;2022-11-21T15:32:58;15.18;;;2.25;;
33902;SDS011;20194;50.950;5.346;2022-11-21T15:40:54;7.82;;;2.40;;
33902;SDS011;20194;50.950;5.346;2022-11-21T15:48:43;11.77;;;2.33;;
33902;SDS011;20194;50.950;5.346;2022-11-21T15:51:11;9.77;;;3.83;;
33902;SDS011;20194;50.950;5.346;2022-11-21T15:53:37;8.10;;;2.40;;
33902;SDS011;20194;50.950;5.346;2022-11-21T15:56:03;6.50;;;1.92;;
33902;SDS011;20194;50.950;5.346;2022-11-21T15:58:30;11.13;;;2.85;;
33902;SDS011;20194;50.950;5.346;2022-11-21T16:00:56;9.02;;;2.53;;
33902;SDS011;20194;50.950;5.346;2022-11-21T16:03:22;15.30;;;2.47;;
33902;SDS011;20194;50.950;5.346;2022-11-21T16:05:48;8.82;;;2.85;;
33902;SDS011;20194;50.950;5.346;2022-11-21T16:08:14;7.85;;;2.75;;
33902;SDS011;20194;50.950;5.346;2022-11-21T16:10:39;10.85;;;2.72;;
33902;SDS011;20194;50.950;5.346;2022-11-21T16:13:05;19.23;;;2.67;;
33902;SDS011;20194;50.950;5.346;2022-11-21T16:15:30;11.07;;;3.95;;
33902;SDS011;20194;50.950;5.346;2022-11-21T16:17:58;9.88;;;3.42;;
33902;SDS011;20194;50.950;5.346;2022-11-21T16:20:23;15.10;;;3.25;;
33902;SDS011;20194;50.950;5.346;2022-11-21T16:22:49;10.85;;;2.88;;
33902;SDS011;20194;50.950;5.346;2022-11-21T16:25:15;8.35;;;2.88;;
33902;SDS011;20194;50.950;5.346;2022-11-21T16:27:41;13.85;;;3.17;;
33902;SDS011;20194;50.950;5.346;2022-11-21T16:30:07;14.27;;;3.10;;
33902;SDS011;20194;50.950;5.346;2022-11-21T16:32:33;10.82;;;2.92;;
33902;SDS011;20194;50.950;5.346;2022-11-21T16:34:59;11.50;;;3.30;;
33902;SDS011;20194;50.950;5.346;2022-11-21T16:37:24;11.75;;;3.22;;
33902;SDS011;20194;50.950;5.346;2022-11-21T16:39:50;12.27;;;3.00;;
33902;SDS011;20194;50.950;5.346;2022-11-21T16:42:16;14.02;;;3.63;;
33902;SDS011;20194;50.950;5.346;2022-11-21T16:44:42;11.98;;;2.97;;
33902;SDS011;20194;50.950;5.346;2022-11-21T16:47:09;18.10;;;3.50;;
33902;SDS011;20194;50.950;5.346;2022-11-21T16:49:35;6.70;;;2.75;;
33902;SDS011;20194;50.950;5.346;2022-11-21T16:52:07;16.73;;;3.47;;
33902;SDS011;20194;50.950;5.346;2022-11-21T16:54:33;13.05;;;2.83;;
33902;SDS011;20194;50.950;5.346;2022-11-21T16:56:59;14.98;;;2.85;;
33902;SDS011;20194;50.950;5.346;2022-11-21T16:59:24;9.82;;;3.15;;
33902;SDS011;20194;50.950;5.346;2022-11-21T17:01:50;13.55;;;3.17;;
33902;SDS011;20194;50.950;5.346;2022-11-21T17:04:16;15.35;;;3.63;;
33902;SDS011;20194;50.950;5.346;2022-11-21T17:06:42;11.85;;;3.58;;
33902;SDS011;20194;50.950;5.346;2022-11-21T17:09:07;12.60;;;4.07;;
33902;SDS011;20194;50.950;5.346;2022-11-21T17:11:34;15.20;;;3.25;;
33902;SDS011;20194;50.950;5.346;2022-11-21T17:14:01;13.43;;;3.42;;
33902;SDS011;20194;50.950;5.346;2022-11-21T17:16:28;14.13;;;3.13;;
33902;SDS011;20194;50.950;5.346;2022-11-21T17:18:56;8.82;;;3.08;;
33902;SDS011;20194;50.950;5.346;2022-11-21T17:21:24;12.20;;;3.30;;
33902;SDS011;20194;50.950;5.346;2022-11-21T17:23:51;10.75;;;3.38;;
33902;SDS011;20194;50.950;5.346;2022-11-21T17:26:18;14.65;;;3.00;;
33902;SDS011;20194;50.950;5.346;2022-11-21T17:28:55;15.52;;;3.75;;
33902;SDS011;20194;50.950;5.346;2022-11-21T17:31:23;16.48;;;4.10;;
33902;SDS011;20194;50.950;5.346;2022-11-21T17:33:49;18.45;;;4.25;;
33902;SDS011;20194;50.950;5.346;2022-11-21T17:36:16;12.60;;;3.83;;
33902;SDS011;20194;50.950;5.346;2022-11-21T17:38:43;16.42;;;4.50;;
33902;SDS011;20194;50.950;5.346;2022-11-21T17:41:12;13.82;;;4.00;;
33902;SDS011;20194;50.950;5.346;2022-11-21T17:43:39;13.60;;;4.57;;